sensor_id;sensor_type;location;lat;lon;timestamp;P1;durP1;ratioP1;P2;durP2;ratioP2
3415;SDS011;1721;51.238;9.562;2022-12-07T00:03:39;10.48;;;4.20;;
3415;SDS011;1721;51.238;9.562;2022-12-07T00:06:06;11.85;;;4.47;;
3415;SDS011;1721;51.238;9.562;2022-12-07T00:08:33;10.30;;;4.43;;
3415;SDS011;1721;51.238;9.562;2022-12-07T00:11:00;11.55;;;4.40;;
3415;SDS011;1721;51.238;9.562;2022-12-07T00:13:34;11.85;;;4.53;;
3415;SDS011;1721;51.238;9.562;2022-12-07T00:16:04;12.77;;;5.37;;
3415;SDS011;1721;51.238;9.562;2022-12-07T00:18:32;12.90;;;4.85;;
3415;SDS011;1721;51.238;9.562;2022-12-07T00:21:01;12.03;;;5.00;;
3415;SDS011;1721;51.238;9.562;2022-12-07T00:23:28;13.95;;;5.00;;
3415;SDS011;1721;51.238;9.562;2022-12-07T00:25:54;13.20;;;5.45;;
3415;SDS011;1721;51.238;9.562;2022-12-07T00:28:19;12.88;;;5.00;;
3415;SDS011;1721;51.238;9.562;2022-12-07T00:30:45;11.40;;;5.28;;
3415;SDS011;1721;51.238;9.562;2022-12-07T00:33:10;11.15;;;5.15;;
3415;SDS011;1721;51.238;9.562;2022-12-07T00:35:36;13.67;;;5.77;;
3415;SDS011;1721;51.238;9.562;2022-12-07T00:38:01;13.03;;;5.27;;
3415;SDS011;1721;51.238;9.562;2022-12-07T00:40:27;12.80;;;4.60;;
3415;SDS011;1721;51.238;9.562;2022-12-07T00:42:52;15.53;;;5.80;;
3415;SDS011;1721;51.238;9.562;2022-12-07T00:45:18;12.80;;;5.50;;
3415;SDS011;1721;51.238;9.562;2022-12-07T00:47:43;12.57;;;5.30;;
3415;SDS011;1721;51.238;9.562;2022-12-07T00:50:09;12.75;;;5.63;;
3415;SDS011;1721;51.238;9.562;2022-12-07T00:52:35;12.50;;;5.13;;
3415;SDS011;1721;51.238;9.562;2022-12-07T00:55:00;12.93;;;5.25;;
3415;SDS011;1721;51.238;9.562;2022-12-07T00:57:26;12.90;;;5.40;;
3415;SDS011;1721;51.238;9.562;2022-12-07T00:59:51;14.07;;;5.60;;
3415;SDS011;1721;51.238;9.562;2022-12-07T01:02:20;14.80;;;6.03;;
3415;SDS011;1721;51.238;9.562;2022-12-07T01:04:46;13.27;;;5.97;;
3415;SDS011;1721;51.238;9.562;2022-12-07T01:07:11;13.70;;;5.70;;
3415;SDS011;1721;51.238;9.562;2022-12-07T01:09:37;13.73;;;5.50;;
3415;SDS011;1721;51.238;9.562;2022-12-07T01:12:03;12.73;;;5.50;;
3415;SDS011;1721;51.238;9.562;2022-12-07T01:14:28;14.98;;;5.47;;
3415;SDS011;1721;51.238;9.562;2022-12-07T01:16:54;14.85;;;6.38;;
3415;SDS011;1721;51.238;9.562;2022-12-07T01:19:19;14.20;;;6.22;;
3415;SDS011;1721;51.238;9.562;2022-12-07T01:21:45;15.97;;;7.00;;
3415;SDS011;1721;51.238;9.562;2022-12-07T01:24:11;15.50;;;6.20;;
3415;SDS011;1721;51.238;9.562;2022-12-07T01:26:36;18.97;;;7.67;;
3415;SDS011;1721;51.238;9.562;2022-12-07T01:29:02;18.73;;;7.10;;
3415;SDS011;1721;51.238;9.562;2022-12-07T01:31:28;16.52;;;6.78;;
3415;SDS011;1721;51.238;9.562;2022-12-07T01:33:55;18.90;;;7.00;;
3415;SDS011;1721;51.238;9.562;2022-12-07T01:36:23;19.58;;;6.78;;
3415;SDS011;1721;51.238;9.562;2022-12-07T01:38:51;20.38;;;7.30;;
3415;SDS011;1721;51.238;9.562;2022-12-07T01:41:21;16.90;;;7.00;;
3415;SDS011;1721;51.238;9.562;2022-12-07T01:46:41;20.48;;;7.70;;
3415;SDS011;1721;51.238;9.562;2022-12-07T01:54:46;19.52;;;7.95;;
3415;SDS011;1721;51.238;9.562;2022-12-07T01:57:14;19.00;;;7.57;;
3415;SDS011;1721;51.238;9.562;2022-12-07T01:59:42;18.58;;;7.70;;
3415;SDS011;1721;51.238;9.562;2022-12-07T02:02:32;20.48;;;7.93;;
3415;SDS011;1721;51.238;9.562;2022-12-07T02:04:57;19.20;;;7.22;;
3415;SDS011;1721;51.238;9.562;2022-12-07T02:07:25;20.00;;;7.57;;
3415;SDS011;1721;51.238;9.562;2022-12-07T02:09:52;19.30;;;7.10;;
3415;SDS011;1721;51.238;9.562;2022-12-07T02:12:18;18.92;;;7.55;;
3415;SDS011;1721;51.238;9.562;2022-12-07T02:14:45;22.45;;;7.90;;
3415;SDS011;1721;51.238;9.562;2022-12-07T02:22:54;18.17;;;7.03;;
3415;SDS011;1721;51.238;9.562;2022-12-07T02:26:19;20.17;;;7.80;;
3415;SDS011;1721;51.238;9.562;2022-12-07T02:31:37;16.73;;;6.80;;
3415;SDS011;1721;51.238;9.562;2022-12-07T02:34:36;16.02;;;6.40;;
3415;SDS011;1721;51.238;9.562;2022-12-07T02:37:38;16.02;;;6.20;;
3415;SDS011;1721;51.238;9.562;2022-12-07T02:40:13;20.77;;;8.15;;
3415;SDS011;1721;51.238;9.562;2022-12-07T02:42:51;18.17;;;7.23;;
3415;SDS011;1721;51.238;9.562;2022-12-07T02:45:22;17.00;;;7.05;;
3415;SDS011;1721;51.238;9.562;2022-12-07T02:47:51;17.25;;;7.43;;
3415;SDS011;1721;51.238;9.562;2022-12-07T02:50:20;17.38;;;6.90;;
3415;SDS011;1721;51.238;9.562;2022-12-07T02:52:46;20.88;;;8.27;;
3415;SDS011;1721;51.238;9.562;2022-12-07T02:55:12;16.17;;;6.70;;
3415;SDS011;1721;51.238;9.562;2022-12-07T03:00:23;15.93;;;6.95;;
3415;SDS011;1721;51.238;9.562;2022-12-07T03:08:23;16.52;;;7.10;;
3415;SDS011;1721;51.238;9.562;2022-12-07T03:11:10;18.48;;;6.70;;
3415;SDS011;1721;51.238;9.562;2022-12-07T03:13:47;19.65;;;7.35;;
3415;SDS011;1721;51.238;9.562;2022-12-07T03:19:06;15.38;;;6.40;;
3415;SDS011;1721;51.238;9.562;2022-12-07T03:21:38;16.55;;;6.40;;
3415;SDS011;1721;51.238;9.562;2022-12-07T03:24:08;16.35;;;6.22;;
3415;SDS011;1721;51.238;9.562;2022-12-07T03:26:38;15.48;;;6.75;;
3415;SDS011;1721;51.238;9.562;2022-12-07T03:29:28;16.27;;;6.30;;
3415;SDS011;1721;51.238;9.562;2022-12-07T03:32:01;14.30;;;5.70;;
3415;SDS011;1721;51.238;9.562;2022-12-07T03:34:36;16.25;;;6.60;;
3415;SDS011;1721;51.238;9.562;2022-12-07T03:37:10;15.70;;;6.40;;
3415;SDS011;1721;51.238;9.562;2022-12-07T03:39:46;14.18;;;6.45;;
3415;SDS011;1721;51.238;9.562;2022-12-07T03:42:28;14.80;;;5.70;;
3415;SDS011;1721;51.238;9.562;2022-12-07T03:44:55;13.20;;;5.20;;
3415;SDS011;1721;51.238;9.562;2022-12-07T03:47:25;13.38;;;5.40;;
3415;SDS011;1721;51.238;9.562;2022-12-07T03:49:58;11.13;;;5.28;;
3415;SDS011;1721;51.238;9.562;2022-12-07T03:55:08;10.45;;;4.15;;
3415;SDS011;1721;51.238;9.562;2022-12-07T03:57:55;9.88;;;4.00;;
3415;SDS011;1721;51.238;9.562;2022-12-07T04:00:25;12.40;;;4.77;;
3415;SDS011;1721;51.238;9.562;2022-12-07T04:02:54;13.05;;;4.45;;
3415;SDS011;1721;51.238;9.562;2022-12-07T04:05:21;11.02;;;4.43;;
3415;SDS011;1721;51.238;9.562;2022-12-07T04:07:46;14.50;;;5.00;;
3415;SDS011;1721;51.238;9.562;2022-12-07T04:10:12;12.27;;;5.40;;
3415;SDS011;1721;51.238;9.562;2022-12-07T04:12:38;15.33;;;6.10;;
3415;SDS011;1721;51.238;9.562;2022-12-07T04:15:04;14.88;;;5.45;;
3415;SDS011;1721;51.238;9.562;2022-12-07T04:17:30;14.98;;;6.00;;
3415;SDS011;1721;51.238;9.562;2022-12-07T04:19:56;13.35;;;6.00;;
3415;SDS011;1721;51.238;9.562;2022-12-07T04:22:21;14.63;;;5.73;;
3415;SDS011;1721;51.238;9.562;2022-12-07T04:24:47;16.07;;;6.43;;
3415;SDS011;1721;51.238;9.562;2022-12-07T04:27:13;16.03;;;6.40;;
3415;SDS011;1721;51.238;9.562;2022-12-07T04:29:38;16.10;;;6.85;;
3415;SDS011;1721;51.238;9.562;2022-12-07T04:32:04;16.30;;;6.80;;
3415;SDS011;1721;51.238;9.562;2022-12-07T04:34:30;15.87;;;6.50;;
3415;SDS011;1721;51.238;9.562;2022-12-07T04:36:55;17.07;;;6.97;;
3415;SDS011;1721;51.238;9.562;2022-12-07T04:39:28;13.40;;;5.80;;
3415;SDS011;1721;51.238;9.562;2022-12-07T04:41:55;15.48;;;6.30;;
3415;SDS011;1721;51.238;9.562;2022-12-07T04:44:21;15.75;;;6.65;;
3415;SDS011;1721;51.238;9.562;2022-12-07T04:46:47;18.80;;;6.22;;
3415;SDS011;1721;51.238;9.562;2022-12-07T04:49:14;16.67;;;6.60;;
3415;SDS011;1721;51.238;9.562;2022-12-07T04:51:40;14.82;;;6.65;;
3415;SDS011;1721;51.238;9.562;2022-12-07T04:54:06;14.93;;;5.80;;
3415;SDS011;1721;51.238;9.562;2022-12-07T04:56:32;14.57;;;5.43;;
3415;SDS011;1721;51.238;9.562;2022-12-07T04:59:00;18.50;;;5.60;;
3415;SDS011;1721;51.238;9.562;2022-12-07T05:01:25;15.43;;;6.07;;
3415;SDS011;1721;51.238;9.562;2022-12-07T05:03:51;17.48;;;6.05;;
3415;SDS011;1721;51.238;9.562;2022-12-07T05:06:17;12.68;;;5.07;;
3415;SDS011;1721;51.238;9.562;2022-12-07T05:08:44;14.80;;;6.00;;
3415;SDS011;1721;51.238;9.562;2022-12-07T05:11:10;12.30;;;5.18;;
3415;SDS011;1721;51.238;9.562;2022-12-07T05:13:54;13.27;;;5.60;;
3415;SDS011;1721;51.238;9.562;2022-12-07T05:16:20;12.10;;;5.20;;
3415;SDS011;1721;51.238;9.562;2022-12-07T05:18:45;13.30;;;5.00;;
3415;SDS011;1721;51.238;9.562;2022-12-07T05:21:11;14.30;;;5.90;;
3415;SDS011;1721;51.238;9.562;2022-12-07T05:23:36;11.60;;;4.80;;
3415;SDS011;1721;51.238;9.562;2022-12-07T05:26:02;16.73;;;5.50;;
3415;SDS011;1721;51.238;9.562;2022-12-07T05:28:27;11.27;;;5.35;;
3415;SDS011;1721;51.238;9.562;2022-12-07T05:30:53;11.55;;;4.95;;
3415;SDS011;1721;51.238;9.562;2022-12-07T05:33:18;11.73;;;4.80;;
3415;SDS011;1721;51.238;9.562;2022-12-07T05:35:44;12.77;;;4.57;;
3415;SDS011;1721;51.238;9.562;2022-12-07T05:38:09;13.35;;;5.20;;
3415;SDS011;1721;51.238;9.562;2022-12-07T05:40:36;9.07;;;4.43;;
3415;SDS011;1721;51.238;9.562;2022-12-07T05:43:01;10.88;;;4.25;;
3415;SDS011;1721;51.238;9.562;2022-12-07T05:45:27;12.10;;;3.90;;
3415;SDS011;1721;51.238;9.562;2022-12-07T05:47:53;10.87;;;4.43;;
3415;SDS011;1721;51.238;9.562;2022-12-07T05:50:18;12.67;;;4.30;;
3415;SDS011;1721;51.238;9.562;2022-12-07T05:52:44;14.13;;;4.90;;
3415;SDS011;1721;51.238;9.562;2022-12-07T05:55:09;12.75;;;4.57;;
3415;SDS011;1721;51.238;9.562;2022-12-07T05:57:35;8.80;;;3.88;;
3415;SDS011;1721;51.238;9.562;2022-12-07T06:00:01;9.93;;;4.28;;
3415;SDS011;1721;51.238;9.562;2022-12-07T06:02:28;13.40;;;4.68;;
3415;SDS011;1721;51.238;9.562;2022-12-07T06:04:54;12.00;;;4.80;;
3415;SDS011;1721;51.238;9.562;2022-12-07T06:07:19;10.93;;;4.10;;
3415;SDS011;1721;51.238;9.562;2022-12-07T06:09:45;9.70;;;4.10;;
3415;SDS011;1721;51.238;9.562;2022-12-07T06:12:11;12.32;;;4.93;;
3415;SDS011;1721;51.238;9.562;2022-12-07T06:14:55;10.20;;;4.07;;
3415;SDS011;1721;51.238;9.562;2022-12-07T06:17:21;9.50;;;4.10;;
3415;SDS011;1721;51.238;9.562;2022-12-07T06:19:47;10.75;;;4.15;;
3415;SDS011;1721;51.238;9.562;2022-12-07T06:22:13;10.87;;;4.23;;
3415;SDS011;1721;51.238;9.562;2022-12-07T06:24:39;12.33;;;3.90;;
3415;SDS011;1721;51.238;9.562;2022-12-07T06:27:05;12.02;;;4.50;;
3415;SDS011;1721;51.238;9.562;2022-12-07T06:29:31;10.57;;;4.20;;
3415;SDS011;1721;51.238;9.562;2022-12-07T06:31:57;10.33;;;3.87;;
3415;SDS011;1721;51.238;9.562;2022-12-07T06:34:23;9.77;;;4.10;;
3415;SDS011;1721;51.238;9.562;2022-12-07T06:36:49;13.13;;;5.00;;
3415;SDS011;1721;51.238;9.562;2022-12-07T06:39:21;11.73;;;4.22;;
3415;SDS011;1721;51.238;9.562;2022-12-07T06:41:48;11.25;;;4.10;;
3415;SDS011;1721;51.238;9.562;2022-12-07T06:44:14;8.82;;;3.30;;
3415;SDS011;1721;51.238;9.562;2022-12-07T06:46:39;9.52;;;4.10;;
3415;SDS011;1721;51.238;9.562;2022-12-07T06:49:05;11.27;;;4.18;;
3415;SDS011;1721;51.238;9.562;2022-12-07T06:51:32;9.45;;;3.97;;
3415;SDS011;1721;51.238;9.562;2022-12-07T06:53:57;11.20;;;4.40;;
3415;SDS011;1721;51.238;9.562;2022-12-07T06:56:23;11.13;;;4.00;;
3415;SDS011;1721;51.238;9.562;2022-12-07T06:58:49;11.70;;;4.35;;
3415;SDS011;1721;51.238;9.562;2022-12-07T07:01:16;9.87;;;4.13;;
3415;SDS011;1721;51.238;9.562;2022-12-07T07:03:43;13.68;;;4.20;;
3415;SDS011;1721;51.238;9.562;2022-12-07T07:06:10;12.35;;;4.60;;
3415;SDS011;1721;51.238;9.562;2022-12-07T07:08:36;10.18;;;4.10;;
3415;SDS011;1721;51.238;9.562;2022-12-07T07:11:02;10.95;;;4.28;;
3415;SDS011;1721;51.238;9.562;2022-12-07T07:13:28;9.33;;;4.23;;
3415;SDS011;1721;51.238;9.562;2022-12-07T07:15:54;9.13;;;3.80;;
3415;SDS011;1721;51.238;9.562;2022-12-07T07:18:20;10.07;;;3.87;;
3415;SDS011;1721;51.238;9.562;2022-12-07T07:20:46;12.13;;;4.20;;
3415;SDS011;1721;51.238;9.562;2022-12-07T07:23:11;11.45;;;4.50;;
3415;SDS011;1721;51.238;9.562;2022-12-07T07:25:37;11.90;;;3.60;;
3415;SDS011;1721;51.238;9.562;2022-12-07T07:28:03;9.38;;;4.03;;
3415;SDS011;1721;51.238;9.562;2022-12-07T07:30:29;15.65;;;4.95;;
3415;SDS011;1721;51.238;9.562;2022-12-07T07:32:56;9.23;;;4.20;;
3415;SDS011;1721;51.238;9.562;2022-12-07T07:35:23;9.73;;;4.50;;
3415;SDS011;1721;51.238;9.562;2022-12-07T07:37:49;10.68;;;3.72;;
3415;SDS011;1721;51.238;9.562;2022-12-07T07:40:15;10.87;;;3.90;;
3415;SDS011;1721;51.238;9.562;2022-12-07T07:42:42;13.93;;;4.50;;
3415;SDS011;1721;51.238;9.562;2022-12-07T07:45:07;9.38;;;3.80;;
3415;SDS011;1721;51.238;9.562;2022-12-07T07:47:33;11.32;;;3.90;;
3415;SDS011;1721;51.238;9.562;2022-12-07T07:49:59;10.57;;;4.07;;
3415;SDS011;1721;51.238;9.562;2022-12-07T07:52:25;10.50;;;4.47;;
3415;SDS011;1721;51.238;9.562;2022-12-07T07:54:51;11.13;;;3.20;;
3415;SDS011;1721;51.238;9.562;2022-12-07T07:57:17;15.50;;;3.70;;
3415;SDS011;1721;51.238;9.562;2022-12-07T07:59:43;11.32;;;4.07;;
3415;SDS011;1721;51.238;9.562;2022-12-07T08:02:15;10.93;;;3.30;;
3415;SDS011;1721;51.238;9.562;2022-12-07T08:04:42;10.13;;;3.50;;
3415;SDS011;1721;51.238;9.562;2022-12-07T08:07:08;8.57;;;3.38;;
3415;SDS011;1721;51.238;9.562;2022-12-07T08:09:34;11.85;;;3.50;;
3415;SDS011;1721;51.238;9.562;2022-12-07T08:12:00;8.77;;;3.10;;
3415;SDS011;1721;51.238;9.562;2022-12-07T08:14:26;10.55;;;3.30;;
3415;SDS011;1721;51.238;9.562;2022-12-07T08:16:53;10.90;;;3.70;;
3415;SDS011;1721;51.238;9.562;2022-12-07T08:19:19;7.25;;;2.80;;
3415;SDS011;1721;51.238;9.562;2022-12-07T08:21:45;8.70;;;3.22;;
3415;SDS011;1721;51.238;9.562;2022-12-07T08:24:10;7.60;;;3.10;;
3415;SDS011;1721;51.238;9.562;2022-12-07T08:26:36;11.20;;;3.27;;
3415;SDS011;1721;51.238;9.562;2022-12-07T08:29:02;6.78;;;2.90;;
3415;SDS011;1721;51.238;9.562;2022-12-07T08:31:27;7.65;;;2.90;;
3415;SDS011;1721;51.238;9.562;2022-12-07T08:33:53;8.00;;;3.20;;
3415;SDS011;1721;51.238;9.562;2022-12-07T08:36:19;6.63;;;2.30;;
3415;SDS011;1721;51.238;9.562;2022-12-07T08:38:46;9.55;;;2.92;;
3415;SDS011;1721;51.238;9.562;2022-12-07T08:41:12;9.33;;;2.77;;
3415;SDS011;1721;51.238;9.562;2022-12-07T08:43:37;8.80;;;2.70;;
3415;SDS011;1721;51.238;9.562;2022-12-07T08:46:10;8.15;;;2.35;;
3415;SDS011;1721;51.238;9.562;2022-12-07T08:48:45;7.00;;;2.38;;
3415;SDS011;1721;51.238;9.562;2022-12-07T08:51:15;7.38;;;2.80;;
3415;SDS011;1721;51.238;9.562;2022-12-07T08:53:41;8.85;;;2.90;;
3415;SDS011;1721;51.238;9.562;2022-12-07T08:56:08;10.60;;;3.10;;
3415;SDS011;1721;51.238;9.562;2022-12-07T08:58:34;6.00;;;2.43;;
3415;SDS011;1721;51.238;9.562;2022-12-07T09:01:02;8.95;;;3.03;;
3415;SDS011;1721;51.238;9.562;2022-12-07T09:03:28;6.93;;;2.50;;
3415;SDS011;1721;51.238;9.562;2022-12-07T09:05:54;8.70;;;2.43;;
3415;SDS011;1721;51.238;9.562;2022-12-07T09:08:20;9.17;;;2.60;;
3415;SDS011;1721;51.238;9.562;2022-12-07T09:10:48;11.05;;;2.50;;
3415;SDS011;1721;51.238;9.562;2022-12-07T09:13:13;9.77;;;2.60;;
3415;SDS011;1721;51.238;9.562;2022-12-07T09:15:39;8.48;;;2.50;;
3415;SDS011;1721;51.238;9.562;2022-12-07T09:18:05;11.32;;;2.72;;
3415;SDS011;1721;51.238;9.562;2022-12-07T09:20:30;7.75;;;2.50;;
3415;SDS011;1721;51.238;9.562;2022-12-07T09:22:59;11.73;;;2.63;;
3415;SDS011;1721;51.238;9.562;2022-12-07T09:25:24;8.53;;;2.60;;
3415;SDS011;1721;51.238;9.562;2022-12-07T09:27:59;8.27;;;2.30;;
3415;SDS011;1721;51.238;9.562;2022-12-07T09:30:25;7.32;;;2.80;;
3415;SDS011;1721;51.238;9.562;2022-12-07T09:32:55;10.88;;;2.58;;
3415;SDS011;1721;51.238;9.562;2022-12-07T09:35:22;6.43;;;2.53;;
3415;SDS011;1721;51.238;9.562;2022-12-07T09:37:48;7.00;;;2.30;;
3415;SDS011;1721;51.238;9.562;2022-12-07T09:40:15;5.13;;;1.97;;
3415;SDS011;1721;51.238;9.562;2022-12-07T09:42:43;9.60;;;2.40;;
3415;SDS011;1721;51.238;9.562;2022-12-07T09:45:23;9.65;;;2.67;;
3415;SDS011;1721;51.238;9.562;2022-12-07T09:47:54;7.45;;;2.50;;
3415;SDS011;1721;51.238;9.562;2022-12-07T09:50:21;8.57;;;2.60;;
3415;SDS011;1721;51.238;9.562;2022-12-07T09:52:49;7.20;;;2.45;;
3415;SDS011;1721;51.238;9.562;2022-12-07T09:55:21;9.90;;;2.50;;
3415;SDS011;1721;51.238;9.562;2022-12-07T09:57:49;8.47;;;2.27;;
3415;SDS011;1721;51.238;9.562;2022-12-07T10:00:17;8.32;;;2.40;;
3415;SDS011;1721;51.238;9.562;2022-12-07T10:02:47;6.00;;;2.42;;
3415;SDS011;1721;51.238;9.562;2022-12-07T10:05:16;10.30;;;2.47;;
3415;SDS011;1721;51.238;9.562;2022-12-07T10:07:49;6.37;;;2.10;;
3415;SDS011;1721;51.238;9.562;2022-12-07T10:10:17;7.28;;;2.50;;
3415;SDS011;1721;51.238;9.562;2022-12-07T10:12:57;5.85;;;2.05;;
3415;SDS011;1721;51.238;9.562;2022-12-07T10:15:41;6.97;;;2.00;;
3415;SDS011;1721;51.238;9.562;2022-12-07T10:23:33;7.03;;;2.30;;
3415;SDS011;1721;51.238;9.562;2022-12-07T10:25:59;7.10;;;1.80;;
3415;SDS011;1721;51.238;9.562;2022-12-07T10:28:44;6.13;;;2.25;;
3415;SDS011;1721;51.238;9.562;2022-12-07T10:31:17;5.00;;;1.90;;
3415;SDS011;1721;51.238;9.562;2022-12-07T10:33:49;4.40;;;1.42;;
3415;SDS011;1721;51.238;9.562;2022-12-07T10:38:45;5.80;;;1.80;;
3415;SDS011;1721;51.238;9.562;2022-12-07T10:41:13;5.07;;;1.40;;
3415;SDS011;1721;51.238;9.562;2022-12-07T10:43:45;4.70;;;1.75;;
3415;SDS011;1721;51.238;9.562;2022-12-07T10:52:07;3.42;;;1.30;;
3415;SDS011;1721;51.238;9.562;2022-12-07T11:05:27;5.18;;;1.30;;
3415;SDS011;1721;51.238;9.562;2022-12-07T11:11:20;3.28;;;1.35;;
3415;SDS011;1721;51.238;9.562;2022-12-07T11:14:07;3.05;;;0.90;;
3415;SDS011;1721;51.238;9.562;2022-12-07T11:25:08;11.45;;;1.35;;
3415;SDS011;1721;51.238;9.562;2022-12-07T11:30:12;3.55;;;1.50;;
3415;SDS011;1721;51.238;9.562;2022-12-07T11:35:42;10.73;;;1.10;;
3415;SDS011;1721;51.238;9.562;2022-12-07T11:38:24;4.85;;;1.38;;
3415;SDS011;1721;51.238;9.562;2022-12-07T11:40:59;3.03;;;1.10;;
3415;SDS011;1721;51.238;9.562;2022-12-07T11:43:37;2.88;;;0.73;;
3415;SDS011;1721;51.238;9.562;2022-12-07T11:46:17;8.27;;;0.80;;
3415;SDS011;1721;51.238;9.562;2022-12-07T11:48:45;3.13;;;0.90;;
3415;SDS011;1721;51.238;9.562;2022-12-07T11:51:15;2.75;;;0.80;;
3415;SDS011;1721;51.238;9.562;2022-12-07T11:53:50;4.32;;;1.02;;
3415;SDS011;1721;51.238;9.562;2022-12-07T11:56:20;2.33;;;1.00;;
3415;SDS011;1721;51.238;9.562;2022-12-07T12:04:30;1.75;;;0.70;;
3415;SDS011;1721;51.238;9.562;2022-12-07T12:06:42;4.93;;;0.77;;
3415;SDS011;1721;51.238;9.562;2022-12-07T12:23:17;5.10;;;0.88;;
3415;SDS011;1721;51.238;9.562;2022-12-07T12:25:48;7.18;;;0.77;;
3415;SDS011;1721;51.238;9.562;2022-12-07T12:28:18;2.95;;;0.90;;
3415;SDS011;1721;51.238;9.562;2022-12-07T12:31:14;14.88;;;1.98;;
3415;SDS011;1721;51.238;9.562;2022-12-07T12:33:44;2.45;;;0.90;;
3415;SDS011;1721;51.238;9.562;2022-12-07T12:46:58;2.63;;;0.90;;
3415;SDS011;1721;51.238;9.562;2022-12-07T12:55:13;2.25;;;0.60;;
3415;SDS011;1721;51.238;9.562;2022-12-07T12:57:45;3.90;;;0.88;;
3415;SDS011;1721;51.238;9.562;2022-12-07T13:00:19;2.10;;;0.83;;
3415;SDS011;1721;51.238;9.562;2022-12-07T13:02:52;4.15;;;0.80;;
3415;SDS011;1721;51.238;9.562;2022-12-07T13:05:23;5.43;;;1.05;;
3415;SDS011;1721;51.238;9.562;2022-12-07T13:07:54;1.92;;;0.75;;
3415;SDS011;1721;51.238;9.562;2022-12-07T13:12:58;2.50;;;0.85;;
3415;SDS011;1721;51.238;9.562;2022-12-07T13:15:49;2.67;;;1.02;;
3415;SDS011;1721;51.238;9.562;2022-12-07T13:26:22;1.88;;;0.80;;
3415;SDS011;1721;51.238;9.562;2022-12-07T13:28:50;2.53;;;0.85;;
3415;SDS011;1721;51.238;9.562;2022-12-07T13:31:23;2.25;;;0.80;;
3415;SDS011;1721;51.238;9.562;2022-12-07T13:33:56;2.20;;;0.80;;
3415;SDS011;1721;51.238;9.562;2022-12-07T13:36:30;2.37;;;1.13;;
3415;SDS011;1721;51.238;9.562;2022-12-07T13:39:22;2.15;;;0.77;;
3415;SDS011;1721;51.238;9.562;2022-12-07T13:41:57;3.97;;;0.85;;
3415;SDS011;1721;51.238;9.562;2022-12-07T13:44:25;7.72;;;1.23;;
3415;SDS011;1721;51.238;9.562;2022-12-07T13:51:46;3.05;;;1.70;;
3415;SDS011;1721;51.238;9.562;2022-12-07T13:54:12;2.15;;;0.90;;
3415;SDS011;1721;51.238;9.562;2022-12-07T13:56:39;2.08;;;0.60;;
3415;SDS011;1721;51.238;9.562;2022-12-07T13:59:05;9.25;;;0.90;;
3415;SDS011;1721;51.238;9.562;2022-12-07T14:02:02;3.67;;;1.27;;
3415;SDS011;1721;51.238;9.562;2022-12-07T14:04:42;4.72;;;0.93;;
3415;SDS011;1721;51.238;9.562;2022-12-07T14:07:24;4.20;;;1.10;;
3415;SDS011;1721;51.238;9.562;2022-12-07T14:09:58;18.85;;;1.25;;
3415;SDS011;1721;51.238;9.562;2022-12-07T14:12:29;21.02;;;1.60;;
3415;SDS011;1721;51.238;9.562;2022-12-07T14:14:56;3.45;;;1.15;;
3415;SDS011;1721;51.238;9.562;2022-12-07T14:17:24;3.97;;;0.88;;
3415;SDS011;1721;51.238;9.562;2022-12-07T14:20:00;2.65;;;1.00;;
3415;SDS011;1721;51.238;9.562;2022-12-07T14:22:29;4.72;;;1.10;;
3415;SDS011;1721;51.238;9.562;2022-12-07T14:25:14;4.55;;;0.85;;
3415;SDS011;1721;51.238;9.562;2022-12-07T14:30:21;8.63;;;1.15;;
3415;SDS011;1721;51.238;9.562;2022-12-07T14:32:50;4.03;;;0.80;;
3415;SDS011;1721;51.238;9.562;2022-12-07T14:35:18;2.25;;;0.80;;
3415;SDS011;1721;51.238;9.562;2022-12-07T14:37:47;2.38;;;0.88;;
3415;SDS011;1721;51.238;9.562;2022-12-07T14:40:14;2.47;;;1.10;;
3415;SDS011;1721;51.238;9.562;2022-12-07T14:42:44;5.93;;;1.30;;
3415;SDS011;1721;51.238;9.562;2022-12-07T14:45:16;3.17;;;0.80;;
3415;SDS011;1721;51.238;9.562;2022-12-07T14:47:44;8.02;;;1.10;;
3415;SDS011;1721;51.238;9.562;2022-12-07T14:50:14;2.65;;;0.80;;
3415;SDS011;1721;51.238;9.562;2022-12-07T14:52:42;3.35;;;1.10;;
3415;SDS011;1721;51.238;9.562;2022-12-07T14:55:22;2.72;;;0.93;;
3415;SDS011;1721;51.238;9.562;2022-12-07T14:57:49;3.95;;;0.80;;
3415;SDS011;1721;51.238;9.562;2022-12-07T15:00:15;3.33;;;1.13;;
3415;SDS011;1721;51.238;9.562;2022-12-07T15:02:42;2.88;;;0.70;;
3415;SDS011;1721;51.238;9.562;2022-12-07T15:05:08;3.35;;;1.20;;
3415;SDS011;1721;51.238;9.562;2022-12-07T15:07:34;2.00;;;0.77;;
3415;SDS011;1721;51.238;9.562;2022-12-07T15:09:59;7.53;;;1.00;;
3415;SDS011;1721;51.238;9.562;2022-12-07T15:12:25;2.03;;;1.00;;
3415;SDS011;1721;51.238;9.562;2022-12-07T15:14:52;4.10;;;1.55;;
3415;SDS011;1721;51.238;9.562;2022-12-07T15:17:17;2.93;;;1.10;;
3415;SDS011;1721;51.238;9.562;2022-12-07T15:19:43;9.20;;;1.20;;
3415;SDS011;1721;51.238;9.562;2022-12-07T15:22:08;3.57;;;1.20;;
3415;SDS011;1721;51.238;9.562;2022-12-07T15:24:36;9.88;;;1.38;;
3415;SDS011;1721;51.238;9.562;2022-12-07T15:27:02;2.15;;;0.80;;
3415;SDS011;1721;51.238;9.562;2022-12-07T15:29:28;3.45;;;1.23;;
3415;SDS011;1721;51.238;9.562;2022-12-07T15:31:54;4.60;;;1.47;;
3415;SDS011;1721;51.238;9.562;2022-12-07T15:34:20;3.80;;;1.27;;
3415;SDS011;1721;51.238;9.562;2022-12-07T15:36:46;2.87;;;1.20;;
3415;SDS011;1721;51.238;9.562;2022-12-07T15:39:11;2.13;;;0.93;;
3415;SDS011;1721;51.238;9.562;2022-12-07T15:41:37;2.10;;;0.80;;
3415;SDS011;1721;51.238;9.562;2022-12-07T15:44:03;2.20;;;0.97;;
3415;SDS011;1721;51.238;9.562;2022-12-07T15:46:47;12.40;;;1.58;;
3415;SDS011;1721;51.238;9.562;2022-12-07T15:49:14;3.10;;;1.30;;
3415;SDS011;1721;51.238;9.562;2022-12-07T15:51:42;6.65;;;1.10;;
3415;SDS011;1721;51.238;9.562;2022-12-07T15:54:13;1.85;;;0.85;;
3415;SDS011;1721;51.238;9.562;2022-12-07T15:56:46;21.63;;;1.40;;
3415;SDS011;1721;51.238;9.562;2022-12-07T15:59:12;5.87;;;1.53;;
3415;SDS011;1721;51.238;9.562;2022-12-07T16:01:38;2.40;;;1.07;;
3415;SDS011;1721;51.238;9.562;2022-12-07T16:04:03;2.97;;;1.00;;
3415;SDS011;1721;51.238;9.562;2022-12-07T16:06:29;3.00;;;1.10;;
3415;SDS011;1721;51.238;9.562;2022-12-07T16:08:55;3.13;;;1.30;;
3415;SDS011;1721;51.238;9.562;2022-12-07T16:11:21;3.27;;;1.57;;
3415;SDS011;1721;51.238;9.562;2022-12-07T16:13:46;3.40;;;1.20;;
3415;SDS011;1721;51.238;9.562;2022-12-07T16:16:13;4.23;;;1.30;;
3415;SDS011;1721;51.238;9.562;2022-12-07T16:18:41;4.18;;;1.52;;
3415;SDS011;1721;51.238;9.562;2022-12-07T16:21:07;3.00;;;1.00;;
3415;SDS011;1721;51.238;9.562;2022-12-07T16:23:33;2.90;;;1.20;;
3415;SDS011;1721;51.238;9.562;2022-12-07T16:26:06;2.80;;;0.93;;
3415;SDS011;1721;51.238;9.562;2022-12-07T16:28:37;3.90;;;1.42;;
3415;SDS011;1721;51.238;9.562;2022-12-07T16:31:04;3.10;;;1.00;;
3415;SDS011;1721;51.238;9.562;2022-12-07T16:33:37;8.23;;;1.45;;
3415;SDS011;1721;51.238;9.562;2022-12-07T16:36:04;3.88;;;1.20;;
3415;SDS011;1721;51.238;9.562;2022-12-07T16:38:31;5.22;;;1.42;;
3415;SDS011;1721;51.238;9.562;2022-12-07T16:40:56;2.90;;;1.10;;
3415;SDS011;1721;51.238;9.562;2022-12-07T16:43:22;4.50;;;1.20;;
3415;SDS011;1721;51.238;9.562;2022-12-07T16:45:48;2.43;;;1.10;;
3415;SDS011;1721;51.238;9.562;2022-12-07T16:48:14;2.45;;;1.13;;
3415;SDS011;1721;51.238;9.562;2022-12-07T16:50:41;5.30;;;1.35;;
3415;SDS011;1721;51.238;9.562;2022-12-07T16:53:10;2.70;;;1.10;;
3415;SDS011;1721;51.238;9.562;2022-12-07T16:55:37;2.58;;;1.05;;
3415;SDS011;1721;51.238;9.562;2022-12-07T16:58:04;2.47;;;1.00;;
3415;SDS011;1721;51.238;9.562;2022-12-07T17:00:30;8.23;;;1.52;;
3415;SDS011;1721;51.238;9.562;2022-12-07T17:02:56;4.60;;;1.23;;
3415;SDS011;1721;51.238;9.562;2022-12-07T17:05:21;7.00;;;1.57;;
3415;SDS011;1721;51.238;9.562;2022-12-07T17:07:48;11.35;;;1.70;;
3415;SDS011;1721;51.238;9.562;2022-12-07T17:10:14;4.97;;;1.00;;
3415;SDS011;1721;51.238;9.562;2022-12-07T17:12:39;7.13;;;1.60;;
3415;SDS011;1721;51.238;9.562;2022-12-07T17:15:05;2.80;;;0.87;;
3415;SDS011;1721;51.238;9.562;2022-12-07T17:17:44;2.75;;;1.25;;
3415;SDS011;1721;51.238;9.562;2022-12-07T17:20:11;4.00;;;1.63;;
3415;SDS011;1721;51.238;9.562;2022-12-07T17:22:37;1.98;;;0.98;;
3415;SDS011;1721;51.238;9.562;2022-12-07T17:25:03;7.10;;;1.60;;
3415;SDS011;1721;51.238;9.562;2022-12-07T17:27:29;4.95;;;1.40;;